ROMMA est une association bénévole à but non lucratif. Votre soutien est indispensable : ADHERER à ROMMA ou FAIRE un DON

Le Versoud - (38, Isère)

Vallée du Grésivaudan (220 m)   Longitude: 05° 51' 44" E   Latitude: 45° 13' 06" N Station partenaire n°6
 

Détail journalier du     <<     >>

Température Humidité Pression Vent Dir Rafale Dir. rafale Ensol.
Heure (°C) (%) (hPa) (km/h) (km/h) (min)
01:00 10.689102000---0
02:00 9.791102000---0
03:00 8.791102000---0
04:00 8.192102000---0
05:00 7.793102000---0
06:00 7.393102000---0
07:00 6.994102000---0
08:00 6.794102000---0
09:00 6.994102000---0
10:00 9.491102000---20
11:00 12.777101902NE60
12:00 15.467101902NE60
13:00 16.861101705NE60
14:00 18.65410161ENE13SSE60
15:00 20.4501016013SSE60
16:00 21.848101502S50
17:00 22.249101506SSO60
18:00 21.454101402SSO60
19:00 18.667101502SSO35
20:00 15.979101500---0
21:00 15.181101600---0
22:00 15.481101600---0
23:00 15.880101602S0
minuit 15.880101500---0

Graphique du 08-10-2019

 

Serveur OMMA